createdAt,value
2018-04-22T00:00:49.964Z,73.42
2018-04-22T00:01:54.370Z,74.03
2018-04-22T00:03:01.568Z,74.20
2018-04-22T00:04:07.729Z,74.12
2018-04-22T00:05:11.904Z,74.03
2018-04-22T00:06:17.449Z,73.71
2018-04-22T00:07:32.862Z,74.08
2018-04-22T00:08:37.017Z,73.81
2018-04-22T00:09:41.840Z,73.56
2018-04-22T00:10:47.487Z,73.56
2018-04-22T00:12:05.017Z,73.75
2018-04-22T00:13:09.263Z,73.67
2018-04-22T00:14:14.276Z,72.94
2018-04-22T00:15:29.710Z,72.59
2018-04-22T00:16:34.678Z,72.32
2018-04-22T00:17:39.585Z,72.31
2018-04-22T00:18:43.722Z,72.68
2018-04-22T00:19:48.110Z,72.90
2018-04-22T00:20:55.275Z,73.82
2018-04-22T00:21:59.715Z,73.28
2018-04-22T00:23:03.815Z,72.97
2018-04-22T00:24:12.293Z,72.61
2018-04-22T00:25:17.144Z,72.53
2018-04-22T00:26:25.532Z,72.71
2018-04-22T00:27:32.557Z,72.96
2018-04-22T00:28:39.736Z,73.37
2018-04-22T00:29:46.428Z,73.70
2018-04-22T00:30:51.971Z,73.62
2018-04-22T00:32:03.246Z,73.54
2018-04-22T00:33:07.486Z,73.60
2018-04-22T00:34:13.335Z,73.63
2018-04-22T00:35:17.584Z,73.79
2018-04-22T00:36:21.750Z,74.09
2018-04-22T00:37:26.912Z,74.09
2018-04-22T00:38:31.050Z,73.89
2018-04-22T00:39:35.312Z,73.94
2018-04-22T00:40:40.262Z,73.65
2018-04-22T00:42:02.958Z,73.47
2018-04-22T00:43:20.457Z,73.47
2018-04-22T00:44:36.444Z,73.56
2018-04-22T00:45:43.514Z,73.67
2018-04-22T00:46:50.651Z,73.97
2018-04-22T00:47:56.151Z,74.02
2018-04-22T00:49:01.565Z,73.88
2018-04-22T00:50:10.162Z,73.89
2018-04-22T00:51:14.454Z,73.84
2018-04-22T00:52:18.645Z,73.96
2018-04-22T00:53:25.224Z,74.00
2018-04-22T00:54:40.502Z,74.06
2018-04-22T00:55:59.044Z,74.04
2018-04-22T00:57:04.889Z,73.99
2018-04-22T00:58:12.717Z,73.92
2018-04-22T00:59:16.828Z,74.01
2018-04-22T01:00:21.387Z,74.01
2018-04-22T01:01:26.942Z,74.03
2018-04-22T01:02:32.120Z,74.03
2018-04-22T01:03:40.804Z,73.69
2018-04-22T01:04:45.056Z,73.14
2018-04-22T01:05:49.149Z,72.97
2018-04-22T01:06:54.640Z,72.70
2018-04-22T01:08:16.020Z,72.33
2018-04-22T01:09:20.150Z,72.13
2018-04-22T01:10:24.625Z,72.12
2018-04-22T01:11:29.388Z,72.14
2018-04-22T01:12:33.517Z,72.28
2018-04-22T01:13:39.078Z,72.62
2018-04-22T01:14:43.202Z,72.68
2018-04-22T01:15:49.790Z,73.17
2018-04-22T01:16:58.061Z,73.97
2018-04-22T01:18:04.724Z,74.63
2018-04-22T01:19:12.556Z,75.04
2018-04-22T01:20:17.165Z,75.51
2018-04-22T01:21:22.446Z,75.82
2018-04-22T01:22:28.644Z,76.46
2018-04-22T01:23:33.705Z,76.45
2018-04-22T01:24:39.817Z,76.29
2018-04-22T01:25:45.883Z,76.21
2018-04-22T01:26:51.573Z,76.37
2018-04-22T01:27:58.101Z,76.75
2018-04-22T01:29:02.215Z,76.72
2018-04-22T01:30:08.741Z,76.65
2018-04-22T01:31:13.364Z,76.51
2018-04-22T01:32:20.487Z,76.31
2018-04-22T01:33:26.989Z,76.29
2018-04-22T01:34:36.077Z,76.17
2018-04-22T01:35:43.229Z,75.90
2018-04-22T01:36:47.598Z,75.22
2018-04-22T01:37:55.910Z,74.84
2018-04-22T01:39:09.805Z,74.36
2018-04-22T01:40:18.564Z,73.83
2018-04-22T01:41:27.084Z,73.42
2018-04-22T01:42:33.894Z,73.14
2018-04-22T01:43:41.069Z,72.86
2018-04-22T01:44:49.364Z,72.78
2018-04-22T01:45:54.845Z,72.76
2018-04-22T01:46:59.549Z,73.09
2018-04-22T01:48:04.251Z,72.88
2018-04-22T01:49:08.851Z,72.94
2018-04-22T01:50:14.211Z,72.94
2018-04-22T01:51:18.337Z,73.00
2018-04-22T01:52:22.555Z,73.16
2018-04-22T01:53:28.374Z,73.34
2018-04-22T01:54:32.559Z,73.17
2018-04-22T01:55:40.046Z,73.55
2018-04-22T01:56:47.289Z,73.70
2018-04-22T01:57:56.593Z,73.61
2018-04-22T01:59:05.627Z,73.70
2018-04-22T02:00:15.670Z,73.71
2018-04-22T02:01:24.460Z,73.88
2018-04-22T02:02:29.419Z,74.23
2018-04-22T02:03:38.219Z,74.63
2018-04-22T02:04:50.809Z,75.01
2018-04-22T02:05:55.880Z,75.61
2018-04-22T02:06:59.991Z,75.56
2018-04-22T02:08:05.130Z,75.65
2018-04-22T02:09:12.008Z,75.37
2018-04-22T02:10:16.820Z,74.99
2018-04-22T02:11:30.579Z,74.70
2018-04-22T02:12:40.291Z,74.36
2018-04-22T02:13:50.745Z,74.22
2018-04-22T02:14:56.551Z,74.03
2018-04-22T02:16:02.288Z,74.10
2018-04-22T02:17:08.507Z,74.14
2018-04-22T02:18:12.663Z,74.48
2018-04-22T02:19:17.935Z,74.69
2018-04-22T02:20:25.285Z,74.64
2018-04-22T02:22:48.255Z,74.48
2018-04-22T02:23:56.711Z,74.38
2018-04-22T02:25:00.910Z,74.56
2018-04-22T02:26:08.834Z,74.37
2018-04-22T02:27:15.588Z,74.52
2018-04-22T02:28:21.845Z,74.61
2018-04-22T02:29:26.561Z,74.75
2018-04-22T02:30:31.818Z,75.02
2018-04-22T02:31:38.434Z,74.95
2018-04-22T02:32:44.498Z,74.97
2018-04-22T02:33:49.937Z,75.20
2018-04-22T02:34:55.117Z,75.29
2018-04-22T02:37:03.352Z,75.56
2018-04-22T02:38:08.701Z,75.72
2018-04-22T02:39:15.469Z,75.79
2018-04-22T02:40:21.737Z,75.81
2018-04-22T02:41:25.900Z,75.99
2018-04-22T02:42:30.063Z,76.00
2018-04-22T02:43:41.135Z,76.04
2018-04-22T02:44:46.128Z,76.33
2018-04-22T02:45:50.928Z,75.83
2018-04-22T02:46:57.040Z,75.73
2018-04-22T02:48:07.720Z,75.56
2018-04-22T02:49:16.885Z,75.55
2018-04-22T02:50:21.005Z,75.62
2018-04-22T02:51:25.946Z,76.00
2018-04-22T02:52:32.883Z,75.71
2018-04-22T02:53:38.401Z,75.55
2018-04-22T02:54:43.054Z,75.59
2018-04-22T02:55:49.448Z,75.62
2018-04-22T02:56:54.457Z,75.59
2018-04-22T02:57:59.446Z,75.48
2018-04-22T02:59:04.479Z,75.49
2018-04-22T03:00:11.069Z,75.57
2018-04-22T03:01:19.319Z,75.65
2018-04-22T03:02:27.267Z,75.87
2018-04-22T03:03:35.739Z,75.93
2018-04-22T03:04:42.761Z,75.95
2018-04-22T03:05:48.369Z,76.11
2018-04-22T03:06:53.077Z,76.18
2018-04-22T03:07:58.173Z,75.98
2018-04-22T03:09:04.603Z,75.69
2018-04-22T03:10:10.792Z,75.49
2018-04-22T03:11:18.458Z,75.50
2018-04-22T03:12:23.639Z,75.65
2018-04-22T03:13:35.840Z,75.88
2018-04-22T03:14:40.826Z,75.75
2018-04-22T03:15:45.561Z,75.66
2018-04-22T03:16:50.878Z,75.54
2018-04-22T03:17:55.130Z,75.58
2018-04-22T03:18:59.522Z,75.65
2018-04-22T03:20:04.977Z,75.54
2018-04-22T03:21:11.016Z,75.47
2018-04-22T03:22:16.628Z,75.62
2018-04-22T03:23:21.794Z,75.77
2018-04-22T03:24:26.756Z,75.88
2018-04-22T03:25:33.859Z,75.92
2018-04-22T03:26:39.738Z,76.04
2018-04-22T03:27:44.846Z,76.17
2018-04-22T03:28:51.014Z,76.30
2018-04-22T03:29:58.002Z,76.38
2018-04-22T03:31:05.063Z,76.48
2018-04-22T03:32:10.485Z,76.59
2018-04-22T03:33:15.936Z,76.65
2018-04-22T03:34:22.185Z,76.79
2018-04-22T03:35:27.246Z,76.77
2018-04-22T03:36:33.488Z,76.80
2018-04-22T03:37:39.392Z,76.88
2018-04-22T03:38:44.716Z,76.96
2018-04-22T03:39:49.068Z,77.07
2018-04-22T03:40:53.706Z,77.17
2018-04-22T03:41:58.735Z,77.33
2018-04-22T03:43:02.873Z,77.37
2018-04-22T03:44:07.893Z,77.47
2018-04-22T03:45:15.756Z,77.49
2018-04-22T03:46:20.680Z,77.51
2018-04-22T03:47:26.321Z,77.45
2018-04-22T03:48:30.979Z,77.44
2018-04-22T03:49:38.144Z,77.26
2018-04-22T03:50:52.187Z,76.97
2018-04-22T03:51:57.826Z,76.74
2018-04-22T03:53:02.275Z,76.69
2018-04-22T03:54:08.378Z,76.68
2018-04-22T03:55:13.483Z,76.54
2018-04-22T03:56:22.585Z,76.22
2018-04-22T03:57:28.639Z,76.00
2018-04-22T03:58:33.340Z,75.85
2018-04-22T03:59:38.369Z,75.49
2018-04-22T04:00:44.576Z,75.26
2018-04-22T04:01:53.089Z,75.10
2018-04-22T04:02:59.853Z,75.07
2018-04-22T04:04:07.593Z,74.89
2018-04-22T04:05:18.221Z,74.74
2018-04-22T04:06:22.524Z,74.69
2018-04-22T04:07:27.293Z,74.67
2018-04-22T04:08:31.438Z,74.16
2018-04-22T04:09:36.048Z,73.66
2018-04-22T04:10:41.302Z,73.69
2018-04-22T04:11:47.442Z,74.03
2018-04-22T04:12:53.260Z,73.97
2018-04-22T04:13:59.118Z,73.76
2018-04-22T04:15:06.121Z,73.33
2018-04-22T04:16:11.640Z,73.19
2018-04-22T04:17:15.914Z,73.13
2018-04-22T04:18:28.726Z,73.26
2018-04-22T04:21:47.152Z,73.24
2018-04-22T04:22:51.453Z,73.13
2018-04-22T04:24:05.476Z,72.67
2018-04-22T04:27:32.613Z,72.28
2018-04-22T04:28:37.940Z,71.38
2018-04-22T04:29:42.948Z,71.34
2018-04-22T04:30:49.337Z,71.35
2018-04-22T04:31:55.199Z,70.98
2018-04-22T04:33:01.291Z,70.81
2018-04-22T04:34:06.048Z,70.84
2018-04-22T04:35:13.500Z,70.87
2018-04-22T04:36:20.360Z,71.16
2018-04-22T04:37:26.308Z,70.81
2018-04-22T04:38:31.015Z,70.70
2018-04-22T04:39:35.635Z,70.82
2018-04-22T04:40:39.774Z,70.79
2018-04-22T04:41:48.731Z,71.05
2018-04-22T04:42:53.982Z,70.81
2018-04-22T04:43:58.639Z,70.88
2018-04-22T04:45:05.546Z,70.60
2018-04-22T04:46:10.426Z,70.45
2018-04-22T04:47:17.412Z,70.52
2018-04-22T04:48:23.372Z,70.27
2018-04-22T04:49:28.464Z,69.87
2018-04-22T04:50:34.807Z,69.29
2018-04-22T04:51:41.037Z,68.93
2018-04-22T04:52:47.516Z,68.71
2018-04-22T04:53:52.467Z,68.75
2018-04-22T04:54:58.422Z,68.40
2018-04-22T04:56:03.894Z,68.15
2018-04-22T04:57:08.182Z,68.11
2018-04-22T04:58:14.822Z,67.97
2018-04-22T04:59:20.476Z,68.22
2018-04-22T05:00:26.450Z,68.53
2018-04-22T05:01:33.907Z,68.29
2018-04-22T05:02:39.285Z,67.90
2018-04-22T05:03:49.220Z,67.67
2018-04-22T05:04:55.764Z,66.89
2018-04-22T05:06:02.468Z,66.80
2018-04-22T05:07:09.073Z,66.45
2018-04-22T05:08:15.084Z,66.00
2018-04-22T05:09:20.268Z,65.75
2018-04-22T05:10:24.685Z,65.64
2018-04-22T05:11:29.289Z,65.17
2018-04-22T05:12:34.352Z,64.67
2018-04-22T05:13:39.044Z,64.54
2018-04-22T05:14:43.611Z,64.48
2018-04-22T05:15:50.680Z,64.18
2018-04-22T05:16:58.478Z,63.59
2018-04-22T05:18:04.049Z,63.10
2018-04-22T05:19:09.226Z,62.70
2018-04-22T05:20:13.997Z,62.75
2018-04-22T05:21:18.720Z,62.89
2018-04-22T05:22:23.837Z,62.59
2018-04-22T05:23:30.020Z,62.01
2018-04-22T05:24:35.085Z,61.56
2018-04-22T05:25:40.045Z,60.99
2018-04-22T05:26:45.266Z,60.88
2018-04-22T05:27:50.874Z,61.01
2018-04-22T05:28:55.054Z,60.38
2018-04-22T05:30:01.227Z,59.95
2018-04-22T05:31:08.903Z,59.39
2018-04-22T05:32:15.233Z,59.26
2018-04-22T05:33:20.015Z,58.30
2018-04-22T05:34:26.483Z,58.69
2018-04-22T05:35:30.642Z,59.22
2018-04-22T05:36:36.421Z,58.71
2018-04-22T05:37:41.031Z,58.41
2018-04-22T05:38:47.464Z,57.82
2018-04-22T05:39:53.470Z,57.89
2018-04-22T05:41:09.700Z,57.66
2018-04-22T05:42:16.036Z,57.57
2018-04-22T05:43:21.166Z,57.21
2018-04-22T05:44:32.045Z,57.52
2018-04-22T05:45:36.920Z,57.47
2018-04-22T05:46:41.593Z,56.99
2018-04-22T05:47:45.760Z,57.30
2018-04-22T05:48:51.423Z,56.97
2018-04-22T05:49:55.983Z,56.89
2018-04-22T05:51:00.137Z,56.01
2018-04-22T05:52:05.185Z,55.99
2018-04-22T05:53:11.026Z,55.62
2018-04-22T05:54:16.756Z,55.55
2018-04-22T05:55:21.910Z,54.55
2018-04-22T05:56:27.103Z,54.92
2018-04-22T05:57:32.205Z,55.09
2018-04-22T05:58:36.404Z,54.68
2018-04-22T05:59:42.612Z,54.54
2018-04-22T06:00:47.240Z,54.51
2018-04-22T06:01:52.798Z,54.12
2018-04-22T06:02:58.274Z,53.54
2018-04-22T06:04:03.981Z,53.45
2018-04-22T06:05:09.579Z,53.70
2018-04-22T06:06:14.300Z,54.08
2018-04-22T06:07:19.137Z,53.10
2018-04-22T06:08:24.192Z,51.84
2018-04-22T06:09:30.962Z,51.68
2018-04-22T06:10:35.651Z,51.28
2018-04-22T06:11:40.320Z,50.46
2018-04-22T06:12:44.450Z,49.99
2018-04-22T06:13:51.736Z,49.63
2018-04-22T06:14:55.899Z,49.43
2018-04-22T06:16:00.599Z,49.41
2018-04-22T06:17:04.805Z,49.16
2018-04-22T06:18:10.228Z,49.46
2018-04-22T06:19:15.790Z,49.32
2018-04-22T06:20:21.232Z,49.01
2018-04-22T06:21:26.047Z,48.57
2018-04-22T06:22:30.177Z,48.85
2018-04-22T06:23:34.298Z,48.58
2018-04-22T06:24:40.153Z,48.84
2018-04-22T06:25:45.062Z,48.51
2018-04-22T06:26:51.970Z,49.46
2018-04-22T06:27:58.319Z,49.66
2018-04-22T06:29:03.401Z,49.40
2018-04-22T06:30:08.940Z,49.13
2018-04-22T06:31:13.545Z,49.08
2018-04-22T06:32:19.596Z,49.07
2018-04-22T06:33:24.193Z,48.94
2018-04-22T06:34:29.046Z,48.39
2018-04-22T06:35:34.078Z,48.21
2018-04-22T06:36:38.967Z,47.66
2018-04-22T06:37:43.571Z,47.83
2018-04-22T06:38:49.983Z,48.16
2018-04-22T06:39:55.517Z,48.65
2018-04-22T06:40:59.741Z,49.89
2018-04-22T06:42:04.418Z,49.74
2018-04-22T06:43:08.620Z,49.92
2018-04-22T06:44:12.808Z,49.70
2018-04-22T06:45:17.710Z,50.20
2018-04-22T06:46:22.434Z,49.99
2018-04-22T06:47:26.621Z,50.00
2018-04-22T06:48:30.746Z,50.10
2018-04-22T06:49:36.313Z,50.39
2018-04-22T06:50:40.939Z,50.56
2018-04-22T06:51:45.966Z,50.55
2018-04-22T06:52:51.066Z,50.78
2018-04-22T06:53:55.327Z,51.17
2018-04-22T06:54:59.464Z,51.10
2018-04-22T06:56:05.813Z,51.01
2018-04-22T06:57:10.476Z,49.56
2018-04-22T06:58:14.919Z,49.43
2018-04-22T06:59:19.815Z,48.86
2018-04-22T07:00:24.223Z,48.66
2018-04-22T07:01:28.917Z,48.86
2018-04-22T07:02:33.130Z,48.32
2018-04-22T07:03:37.857Z,47.86
2018-04-22T07:04:42.357Z,48.51
2018-04-22T07:05:48.700Z,48.12
2018-04-22T07:06:55.628Z,47.69
2018-04-22T07:08:00.842Z,46.69
2018-04-22T07:09:06.678Z,46.92
2018-04-22T07:10:10.813Z,47.50
2018-04-22T07:11:15.286Z,47.27
2018-04-22T07:12:19.424Z,46.88
2018-04-22T07:13:23.546Z,45.99
2018-04-22T07:14:27.758Z,45.60
2018-04-22T07:15:32.338Z,44.69
2018-04-22T07:16:36.659Z,44.51
2018-04-22T07:17:41.969Z,44.89
2018-04-22T07:18:46.679Z,45.01
2018-04-22T07:19:51.232Z,44.25
2018-04-22T07:20:56.198Z,44.33
2018-04-22T07:22:00.337Z,43.74
2018-04-22T07:23:06.357Z,43.10
2018-04-22T07:24:11.350Z,42.49
2018-04-22T07:25:16.754Z,42.63
2018-04-22T07:26:20.881Z,42.98
2018-04-22T07:27:27.117Z,43.02
2018-04-22T07:28:32.570Z,43.51
2018-04-22T07:29:41.331Z,42.95
2018-04-22T07:30:46.803Z,43.33
2018-04-22T07:31:57.589Z,43.62
2018-04-22T07:33:03.368Z,43.37
2018-04-22T07:34:07.572Z,43.38
2018-04-22T07:35:12.175Z,43.32
2018-04-22T07:36:17.386Z,42.62
2018-04-22T07:37:23.155Z,42.93
2018-04-22T07:38:27.351Z,42.20
2018-04-22T07:39:33.544Z,42.77
2018-04-22T07:40:37.790Z,42.58
2018-04-22T07:41:42.041Z,42.33
2018-04-22T07:42:46.155Z,41.71
2018-04-22T07:43:51.978Z,41.72
2018-04-22T07:44:56.146Z,41.63
2018-04-22T07:46:00.892Z,41.16
2018-04-22T07:47:06.115Z,41.02
2018-04-22T07:48:10.859Z,41.89
2018-04-22T07:49:15.356Z,41.81
2018-04-22T07:50:24.355Z,41.11
2018-04-22T07:51:34.474Z,41.93
2018-04-22T07:52:41.527Z,42.04
2018-04-22T07:53:46.240Z,42.48
2018-04-22T07:54:51.597Z,42.44
2018-04-22T07:55:57.981Z,42.82
2018-04-22T07:57:02.246Z,42.25
2018-04-22T07:58:07.500Z,42.35
2018-04-22T07:59:12.173Z,42.07
2018-04-22T08:00:20.675Z,41.93
2018-04-22T08:01:25.924Z,41.53
2018-04-22T08:02:30.497Z,40.92
2018-04-22T08:03:34.675Z,41.25
2018-04-22T08:04:38.892Z,40.32
2018-04-22T08:05:44.032Z,39.51
2018-04-22T08:06:49.300Z,39.20
2018-04-22T08:07:54.243Z,39.24
2018-04-22T08:09:00.363Z,38.99
2018-04-22T08:10:06.296Z,38.08
2018-04-22T08:11:11.335Z,38.20
2018-04-22T08:12:15.643Z,37.54
2018-04-22T08:13:20.713Z,37.79
2018-04-22T08:14:25.670Z,37.04
2018-04-22T08:15:31.379Z,36.98
2018-04-22T08:16:37.399Z,37.04
2018-04-22T08:17:42.561Z,36.99
2018-04-22T08:18:47.258Z,37.44
2018-04-22T08:19:52.678Z,38.13
2018-04-22T08:20:58.825Z,37.25
2018-04-22T08:22:02.965Z,37.11
2018-04-22T08:23:08.012Z,37.35
2018-04-22T08:24:12.204Z,37.60
2018-04-22T08:25:16.353Z,37.36
2018-04-22T08:26:21.410Z,37.08
2018-04-22T08:27:27.880Z,37.25
2018-04-22T08:28:33.466Z,36.72
2018-04-22T08:29:37.781Z,36.96
2018-04-22T08:30:43.363Z,36.71
2018-04-22T08:31:49.403Z,36.70
2018-04-22T08:32:59.532Z,36.80
2018-04-22T08:34:04.429Z,36.68
2018-04-22T08:35:08.590Z,36.71
2018-04-22T08:36:34.653Z,36.55
2018-04-22T08:37:38.828Z,36.99
2018-04-22T08:38:44.138Z,37.54
2018-04-22T08:39:49.410Z,36.52
2018-04-22T08:40:54.462Z,36.56
2018-04-22T08:41:58.603Z,36.73
2018-04-22T08:43:03.717Z,36.71
2018-04-22T08:44:07.908Z,36.46
2018-04-22T08:45:14.823Z,36.36
2018-04-22T08:46:20.412Z,36.04
2018-04-22T08:47:24.655Z,35.93
2018-04-22T08:48:30.022Z,35.46
2018-04-22T08:49:34.426Z,35.72
2018-04-22T08:50:39.160Z,37.13
2018-04-22T08:51:43.902Z,36.18
2018-04-22T08:52:48.479Z,36.35
2018-04-22T08:53:53.909Z,36.45
2018-04-22T08:54:58.066Z,36.56
2018-04-22T08:56:02.821Z,37.01
2018-04-22T08:57:07.108Z,36.58
2018-04-22T08:58:11.899Z,36.52
2018-04-22T08:59:16.912Z,36.31
2018-04-22T09:00:22.477Z,36.22
2018-04-22T09:01:27.524Z,36.33
2018-04-22T09:02:31.742Z,35.72
2018-04-22T09:03:35.945Z,36.37
2018-04-22T09:04:40.644Z,36.23
2018-04-22T09:05:45.779Z,36.57
2018-04-22T09:06:50.852Z,36.42
2018-04-22T09:07:56.156Z,36.89
2018-04-22T09:09:00.899Z,36.51
2018-04-22T09:10:05.066Z,36.45
2018-04-22T09:11:11.104Z,36.26
2018-04-22T09:12:15.420Z,36.95
2018-04-22T09:13:21.640Z,37.11
2018-04-22T09:14:27.374Z,38.10
2018-04-22T09:15:34.331Z,38.04
2018-04-22T09:16:38.977Z,38.08
2018-04-22T09:17:44.031Z,38.75
2018-04-22T09:18:48.987Z,39.16
2018-04-22T09:19:53.218Z,39.27
2018-04-22T09:21:00.289Z,38.84
2018-04-22T09:22:04.877Z,38.32
2018-04-22T09:23:09.218Z,38.41
2018-04-22T09:24:14.566Z,38.05
2018-04-22T09:25:18.745Z,37.49
2018-04-22T09:26:22.921Z,37.44
2018-04-22T09:27:28.378Z,36.96
2018-04-22T09:28:32.631Z,37.13
2018-04-22T09:29:37.087Z,36.69
2018-04-22T09:30:42.605Z,36.04
2018-04-22T09:31:46.771Z,35.60
2018-04-22T09:32:51.839Z,36.15
2018-04-22T09:33:57.531Z,34.79
2018-04-22T09:35:01.921Z,35.29
2018-04-22T09:36:06.921Z,35.70
2018-04-22T09:37:11.100Z,35.50
2018-04-22T09:38:15.393Z,36.33
2018-04-22T09:39:20.046Z,36.34
2018-04-22T09:40:24.168Z,36.90
2018-04-22T09:41:29.690Z,36.77
2018-04-22T09:42:34.174Z,36.87
2018-04-22T09:43:39.749Z,36.80
2018-04-22T09:44:45.642Z,36.95
2018-04-22T09:45:50.724Z,37.00
2018-04-22T09:46:56.102Z,37.00
2018-04-22T09:48:00.748Z,37.16
2018-04-22T09:49:04.965Z,36.19
2018-04-22T09:50:09.725Z,36.12
2018-04-22T09:51:14.084Z,36.16
2018-04-22T09:52:19.200Z,35.96
2018-04-22T09:53:26.943Z,35.31
2018-04-22T09:54:31.115Z,35.21
2018-04-22T09:55:36.116Z,35.19
2018-04-22T09:56:41.652Z,35.35
2018-04-22T09:57:47.017Z,34.42
2018-04-22T09:58:56.094Z,34.18
2018-04-22T10:00:00.235Z,34.25
2018-04-22T10:01:05.005Z,34.06
2018-04-22T10:02:15.312Z,33.89
2018-04-22T10:03:19.602Z,33.28
2018-04-22T10:04:27.769Z,33.05
2018-04-22T10:05:36.804Z,33.09
2018-04-22T10:06:41.545Z,32.68
2018-04-22T10:07:46.350Z,32.98
2018-04-22T10:08:51.472Z,32.74
2018-04-22T10:09:57.698Z,32.29
2018-04-22T10:11:03.235Z,32.44
2018-04-22T10:12:07.986Z,33.43
2018-04-22T10:13:13.061Z,34.43
2018-04-22T10:14:20.511Z,35.10
2018-04-22T10:15:24.983Z,34.73
2018-04-22T10:16:29.698Z,34.72
2018-04-22T10:17:33.841Z,34.00
2018-04-22T10:18:38.599Z,33.19
2018-04-22T10:19:42.751Z,33.10
2018-04-22T10:20:48.377Z,33.96
2018-04-22T10:21:54.157Z,33.26
2018-04-22T10:22:58.349Z,32.75
2018-04-22T10:24:02.569Z,32.13
2018-04-22T10:25:07.704Z,32.55
2018-04-22T10:26:12.953Z,32.49
2018-04-22T10:27:17.128Z,31.68
2018-04-22T10:28:21.371Z,31.46
2018-04-22T10:29:25.579Z,30.96
2018-04-22T10:30:29.803Z,31.71
2018-04-22T10:31:34.499Z,32.12
2018-04-22T10:32:41.684Z,32.59
2018-04-22T10:33:49.778Z,33.59
2018-04-22T10:34:56.843Z,31.93
2018-04-22T10:36:01.098Z,32.27
2018-04-22T10:37:05.373Z,31.08
2018-04-22T10:38:09.523Z,30.59
2018-04-22T10:39:13.770Z,29.86
2018-04-22T10:40:17.945Z,29.35
2018-04-22T10:41:22.189Z,29.72
2018-04-22T10:42:27.041Z,29.30
2018-04-22T10:43:31.196Z,29.70
2018-04-22T10:44:36.695Z,29.24
2018-04-22T10:45:44.433Z,28.81
2018-04-22T10:46:49.675Z,29.20
2018-04-22T10:47:54.578Z,28.16
2018-04-22T10:48:58.781Z,28.80
2018-04-22T10:50:02.982Z,29.29
2018-04-22T10:51:07.123Z,30.71
2018-04-22T10:52:11.601Z,30.97
2018-04-22T10:53:15.775Z,30.90
2018-04-22T10:54:20.289Z,31.09
2018-04-22T10:55:24.440Z,31.73
2018-04-22T10:56:28.577Z,31.96
2018-04-22T10:57:33.200Z,31.08
2018-04-22T10:58:37.933Z,31.20
2018-04-22T10:59:42.127Z,30.88
2018-04-22T11:00:48.134Z,31.29
2018-04-22T11:01:53.664Z,30.46
2018-04-22T11:02:59.345Z,30.24
2018-04-22T11:04:03.820Z,30.42
2018-04-22T11:05:08.228Z,30.97
2018-04-22T11:06:13.150Z,31.57
2018-04-22T11:07:17.988Z,30.91
2018-04-22T11:08:22.183Z,30.07
2018-04-22T11:09:26.303Z,30.89
2018-04-22T11:10:30.937Z,28.89
2018-04-22T11:11:35.640Z,29.69
2018-04-22T11:12:39.813Z,30.03
2018-04-22T11:13:44.273Z,31.48
2018-04-22T11:14:48.919Z,32.04
2018-04-22T11:15:53.723Z,32.53
2018-04-22T11:16:58.467Z,32.12
2018-04-22T11:18:03.174Z,31.43
2018-04-22T11:19:07.369Z,30.39
2018-04-22T11:20:11.543Z,30.16
2018-04-22T11:21:15.733Z,30.76
2018-04-22T11:22:20.029Z,31.61
2018-04-22T11:23:25.264Z,31.73
2018-04-22T11:24:29.459Z,31.56
2018-04-22T11:25:34.236Z,31.09
2018-04-22T11:26:38.397Z,30.53
2018-04-22T11:27:43.948Z,30.43
2018-04-22T11:28:48.111Z,30.27
2018-04-22T11:29:52.333Z,30.29
2018-04-22T11:31:07.434Z,30.42
2018-04-22T11:32:11.871Z,30.33
2018-04-22T11:33:16.991Z,31.40
2018-04-22T11:34:21.956Z,31.28
2018-04-22T11:35:27.139Z,31.27
2018-04-22T11:36:33.064Z,30.96
2018-04-22T11:37:37.685Z,32.06
2018-04-22T11:38:41.973Z,31.85
2018-04-22T11:39:47.346Z,32.66
2018-04-22T11:40:52.790Z,32.25
2018-04-22T11:41:57.022Z,33.08
2018-04-22T11:43:01.817Z,32.72
2018-04-22T11:44:05.975Z,33.32
2018-04-22T11:45:13.623Z,33.47
2018-04-22T11:46:36.478Z,32.71
2018-04-22T11:47:40.663Z,32.15
2018-04-22T11:48:45.390Z,31.36
2018-04-22T11:49:49.653Z,31.41
2018-04-22T11:50:54.509Z,30.51
2018-04-22T11:52:00.096Z,31.30
2018-04-22T11:53:04.344Z,31.65
2018-04-22T11:54:08.525Z,31.24
2018-04-22T11:55:13.299Z,30.33
2018-04-22T11:56:17.513Z,30.21
2018-04-22T11:57:22.185Z,30.91
2018-04-22T11:58:28.082Z,31.10
2018-04-22T11:59:32.484Z,31.27
2018-04-22T12:00:37.099Z,31.01
2018-04-22T12:01:41.649Z,29.62
2018-04-22T12:02:48.131Z,28.16
2018-04-22T12:03:52.508Z,29.02
2018-04-22T12:04:57.928Z,29.58
2018-04-22T12:06:05.827Z,29.41
2018-04-22T12:07:10.237Z,29.21
2018-04-22T12:08:14.960Z,29.21
2018-04-22T12:09:19.239Z,29.69
2018-04-22T12:10:23.751Z,28.94
2018-04-22T12:11:29.761Z,28.93
2018-04-22T12:12:34.160Z,29.23
2018-04-22T12:13:39.387Z,30.01
2018-04-22T12:14:43.720Z,29.07
2018-04-22T12:15:48.229Z,30.24
2018-04-22T12:16:56.192Z,30.36
2018-04-22T12:18:07.863Z,30.10
2018-04-22T12:19:16.341Z,30.60
2018-04-22T12:20:20.488Z,31.22
2018-04-22T12:21:25.263Z,32.51
2018-04-22T12:22:29.946Z,33.55
2018-04-22T12:23:34.498Z,33.23
2018-04-22T12:24:39.152Z,33.65
2018-04-22T12:25:52.011Z,31.96
2018-04-22T12:27:04.700Z,32.35
2018-04-22T12:28:09.349Z,32.86
2018-04-22T12:29:14.937Z,33.41
2018-04-22T12:30:20.253Z,32.79
2018-04-22T12:31:27.009Z,33.23
2018-04-22T12:32:31.635Z,33.49
2018-04-22T12:33:36.154Z,34.11
2018-04-22T12:34:40.333Z,33.80
2018-04-22T12:35:44.688Z,33.45
2018-04-22T12:36:49.649Z,34.24
2018-04-22T12:37:53.816Z,34.81
2018-04-22T12:38:59.977Z,33.94
2018-04-22T12:40:04.680Z,33.77
2018-04-22T12:41:09.927Z,33.86
2018-04-22T12:42:14.691Z,34.52
2018-04-22T12:43:19.710Z,34.70
2018-04-22T12:44:25.569Z,34.31
2018-04-22T12:45:30.001Z,33.61
2018-04-22T12:46:34.266Z,32.50
2018-04-22T12:47:38.458Z,31.59
2018-04-22T12:48:42.599Z,32.14
2018-04-22T12:49:47.798Z,30.25
2018-04-22T12:50:51.979Z,31.52
2018-04-22T12:51:57.071Z,31.68
2018-04-22T12:53:01.235Z,32.85
2018-04-22T12:54:05.624Z,33.53
2018-04-22T12:55:12.183Z,32.51
2018-04-22T12:56:16.819Z,31.01
2018-04-22T12:57:20.987Z,30.77
2018-04-22T12:58:25.816Z,31.47
2018-04-22T12:59:30.055Z,33.46
2018-04-22T13:00:35.505Z,34.34
2018-04-22T13:01:39.971Z,33.17
2018-04-22T13:02:44.229Z,32.91
2018-04-22T13:03:48.377Z,33.49
2018-04-22T13:04:52.953Z,32.94
2018-04-22T13:05:57.254Z,31.86
2018-04-22T13:07:01.700Z,32.04
2018-04-22T13:08:06.750Z,32.96
2018-04-22T13:09:11.400Z,32.52
2018-04-22T13:10:16.990Z,32.46
2018-04-22T13:11:22.097Z,32.53
2018-04-22T13:12:27.296Z,31.92
2018-04-22T13:13:31.803Z,32.44
2018-04-22T13:14:36.038Z,33.00
2018-04-22T13:15:40.464Z,33.08
2018-04-22T13:16:44.701Z,33.17
2018-04-22T13:17:49.674Z,32.56
2018-04-22T13:18:53.915Z,32.61
2018-04-22T13:19:58.968Z,32.98
2018-04-22T13:21:03.191Z,33.30
2018-04-22T13:22:07.395Z,32.11
2018-04-22T13:23:11.604Z,31.67
2018-04-22T13:24:16.285Z,31.50
2018-04-22T13:25:20.438Z,30.71
2018-04-22T13:26:24.610Z,29.49
2018-04-22T13:27:28.837Z,29.32
2018-04-22T13:28:32.967Z,29.52
2018-04-22T13:29:37.225Z,29.29
2018-04-22T13:30:41.612Z,29.43
2018-04-22T13:31:46.393Z,28.64
2018-04-22T13:32:50.933Z,29.64
2018-04-22T13:34:01.392Z,29.79
2018-04-22T13:35:05.631Z,30.83
2018-04-22T13:36:09.777Z,30.65
2018-04-22T13:37:15.927Z,30.97
2018-04-22T13:38:21.226Z,31.49
2018-04-22T13:39:26.370Z,31.12
2018-04-22T13:40:30.533Z,31.50
2018-04-22T13:41:35.523Z,30.34
2018-04-22T13:42:41.991Z,30.47
2018-04-22T13:43:46.314Z,32.21
2018-04-22T13:44:50.550Z,33.13
2018-04-22T13:45:58.254Z,33.09
2018-04-22T13:47:03.758Z,32.31
2018-04-22T13:48:09.681Z,32.28
2018-04-22T13:49:13.899Z,33.88
2018-04-22T13:50:23.623Z,34.23
2018-04-22T13:51:28.077Z,35.11
2018-04-22T13:52:32.233Z,34.35
2018-04-22T13:53:36.491Z,32.49
2018-04-22T13:54:42.329Z,32.31
2018-04-22T13:55:47.015Z,33.01
2018-04-22T13:56:56.662Z,33.23
2018-04-22T13:58:00.833Z,33.94
2018-04-22T13:59:14.206Z,33.21
2018-04-22T14:00:26.277Z,32.77
2018-04-22T14:01:31.141Z,30.97
2018-04-22T14:02:35.727Z,29.50
2018-04-22T14:03:46.626Z,30.84
2018-04-22T14:04:50.894Z,30.95
2018-04-22T14:05:55.183Z,30.33
2018-04-22T14:06:59.342Z,30.11
2018-04-22T14:08:03.530Z,29.46
2018-04-22T14:09:09.593Z,28.83
2018-04-22T14:10:13.819Z,30.45
2018-04-22T14:11:20.809Z,29.63
2018-04-22T14:12:25.459Z,30.02
2018-04-22T14:13:30.104Z,29.50